createdAt,value
2023-10-02T00:08:43.045Z,1.00
2023-10-02T00:18:45.744Z,0.55
2023-10-02T00:28:48.289Z,0.57
2023-10-02T00:38:51.507Z,0.50
2023-10-02T00:48:54.057Z,0.70
2023-10-02T00:59:16.539Z,0.50
2023-10-02T01:09:19.606Z,0.57
2023-10-02T01:19:25.669Z,0.50
2023-10-02T01:29:31.009Z,0.70
2023-10-02T01:39:35.630Z,0.50
2023-10-02T01:49:40.139Z,0.50
2023-10-02T01:59:47.128Z,0.50
2023-10-02T02:09:49.916Z,0.57
2023-10-02T02:19:53.268Z,0.50
2023-10-02T02:29:58.408Z,0.50
2023-10-02T02:40:23.463Z,0.50
2023-10-02T02:50:29.420Z,0.70
2023-10-02T03:00:33.428Z,0.50
2023-10-02T03:10:38.576Z,0.50
2023-10-02T03:20:44.628Z,0.50
2023-10-02T03:30:50.145Z,0.50
2023-10-02T03:40:58.457Z,0.50
2023-10-02T03:51:05.266Z,0.60
2023-10-02T04:01:09.915Z,0.50
2023-10-02T04:11:13.545Z,0.70
2023-10-02T04:21:24.482Z,0.50
2023-10-02T04:31:30.165Z,0.50
2023-10-02T04:41:39.970Z,0.50
2023-10-02T04:51:47.933Z,0.60
2023-10-02T05:02:13.808Z,0.70
2023-10-02T05:12:24.084Z,0.60
2023-10-02T05:22:29.280Z,0.57
2023-10-02T05:32:37.030Z,0.50
2023-10-02T05:43:05.445Z,0.60
2023-10-02T05:53:09.256Z,0.60
2023-10-02T06:03:13.654Z,0.50
2023-10-02T06:13:17.557Z,0.60
2023-10-02T06:23:24.501Z,0.70
2023-10-02T06:33:28.642Z,0.70
2023-10-02T06:43:41.174Z,0.70
2023-10-02T06:54:04.903Z,0.70
2023-10-02T07:04:11.570Z,0.80
2023-10-02T07:14:16.317Z,0.80
2023-10-02T07:24:30.228Z,1.00
2023-10-02T07:34:34.021Z,1.00
2023-10-02T07:44:42.501Z,0.90
2023-10-02T07:54:49.887Z,0.90
2023-10-02T08:05:18.439Z,1.10
2023-10-02T08:15:27.899Z,1.20
2023-10-02T08:25:35.194Z,1.23
2023-10-02T08:35:47.741Z,1.40
2023-10-02T08:45:51.544Z,1.58
2023-10-02T08:56:06.471Z,1.20
2023-10-02T09:06:28.928Z,1.90
2023-10-02T09:16:31.954Z,1.70
2023-10-02T09:26:49.381Z,1.93
2023-10-02T09:37:51.102Z,1.70
2023-10-02T09:47:22.517Z,2.10
2023-10-02T09:57:32.574Z,2.30
2023-10-02T10:07:53.403Z,1.90
2023-10-02T10:17:58.114Z,2.17
2023-10-02T10:28:09.887Z,1.90
2023-10-02T10:38:30.195Z,2.00
2023-10-02T10:48:34.420Z,1.80
2023-10-02T10:58:37.273Z,2.25
2023-10-02T11:08:40.123Z,1.90
2023-10-02T11:19:42.810Z,2.30
2023-10-02T11:30:32.179Z,2.00
2023-10-02T11:40:35.810Z,1.80
2023-10-02T11:50:39.541Z,2.30
2023-10-02T12:00:46.657Z,2.30
2023-10-02T12:11:00.390Z,2.17
2023-10-02T12:21:09.488Z,2.00
2023-10-02T12:31:16.796Z,2.10
2023-10-02T12:41:23.481Z,2.22
2023-10-02T13:03:22.712Z,2.00
2023-10-02T13:13:25.973Z,2.65
2023-10-02T13:23:28.722Z,2.63
2023-10-02T13:33:31.871Z,2.70
2023-10-02T13:43:38.263Z,2.10
2023-10-02T13:53:44.477Z,2.00
2023-10-02T14:03:51.428Z,2.30
2023-10-02T14:13:57.861Z,1.70
2023-10-02T14:24:01.984Z,1.67
2023-10-02T14:34:08.259Z,1.40
2023-10-02T14:44:11.923Z,1.60
2023-10-02T14:54:16.787Z,1.50
2023-10-02T15:04:20.497Z,1.20
2023-10-02T15:14:23.445Z,1.40
2023-10-02T15:24:26.118Z,1.10
2023-10-02T15:34:28.730Z,1.73
2023-10-02T15:44:31.302Z,1.20
2023-10-02T15:54:33.861Z,1.20
2023-10-02T16:04:36.462Z,1.30
2023-10-02T16:14:38.998Z,1.00
2023-10-02T16:24:42.625Z,1.20
2023-10-02T16:34:45.169Z,1.20
2023-10-02T16:44:48.939Z,1.00
2023-10-02T16:54:51.579Z,1.23
2023-10-02T17:04:59.518Z,0.80
2023-10-02T17:15:02.118Z,0.80
2023-10-02T17:25:05.962Z,0.77
2023-10-02T17:35:10.830Z,0.80
2023-10-02T17:45:14.042Z,0.80
2023-10-02T17:55:17.275Z,0.87
2023-10-02T18:05:20.194Z,0.90
2023-10-02T18:15:22.969Z,1.00
2023-10-02T18:25:25.998Z,0.80
2023-10-02T18:35:28.994Z,0.80
2023-10-02T18:45:32.428Z,0.80
2023-10-02T18:55:35.345Z,0.80
2023-10-02T19:05:39.341Z,0.70
2023-10-02T19:15:43.229Z,0.80
2023-10-02T19:25:47.330Z,0.70
2023-10-02T19:35:50.021Z,0.80
2023-10-02T19:45:53.248Z,0.68
2023-10-02T19:56:00.619Z,1.07
2023-10-02T20:06:10.595Z,0.77
2023-10-02T20:16:14.551Z,0.70
2023-10-02T20:26:17.293Z,0.70
2023-10-02T20:36:20.115Z,0.80
2023-10-02T20:46:22.627Z,0.70
2023-10-02T20:56:25.426Z,0.80
2023-10-02T21:06:31.142Z,0.70
2023-10-02T21:16:34.676Z,0.80
2023-10-02T21:26:37.421Z,0.70
2023-10-02T21:36:45.774Z,0.70
2023-10-02T21:46:48.526Z,0.80
2023-10-02T21:56:51.124Z,0.70
2023-10-02T22:06:53.810Z,0.63
2023-10-02T22:16:59.310Z,0.77
2023-10-02T22:27:02.269Z,0.70
2023-10-02T22:37:04.852Z,0.70
2023-10-02T22:47:07.411Z,0.60
2023-10-02T22:57:10.226Z,0.73
2023-10-02T23:07:12.763Z,0.60
2023-10-02T23:17:16.271Z,0.70
2023-10-02T23:27:19.011Z,0.70
2023-10-02T23:37:23.104Z,0.70
2023-10-02T23:47:25.628Z,0.68
2023-10-02T23:57:28.934Z,0.70
